Time;durP1;ratioP1;P1;durP2;ratioP2;P2;SDS_P1;SDS_P2;PMS_P1;PMS_P2;Temp;Humidity;BMP_temperature;BMP_pressure;BME280_temperature;BME280_humidity;BME280_pressure;Samples;Min_cycle;Max_cycle;Signal;HPM_P1;HPM_P2
2022/04/02 00:00:12;;;;;;;689.70;47.20;;;-2.90;1.00;-2.60;92675.00;;;;7392895;19;20152;-74
2022/04/02 00:02:39;;;;;;;329.47;32.03;;;-2.90;1.00;-2.70;92678.00;;;;7392630;19;20133;-74
2022/04/02 00:05:07;;;;;;;593.37;42.97;;;-2.90;1.00;-2.60;92644.00;;;;7390191;19;20214;-74
2022/04/02 00:07:48;;;;;;;329.63;34.33;;;-2.90;1.00;-2.50;92681.00;;;;7397712;19;20469;-74
2022/04/02 00:10:15;;;;;;;161.83;27.17;;;-2.90;1.00;-2.40;92657.00;;;;7390720;19;20182;-74
2022/04/02 00:12:49;;;;;;;332.87;32.33;;;-2.90;1.00;-2.60;92652.00;;;;7392452;19;20146;-74
2022/04/02 00:15:16;;;;;;;451.30;35.97;;;-2.90;1.00;-2.60;92633.00;;;;7395131;19;20145;-74
2022/04/02 00:17:43;;;;;;;455.90;37.67;;;-2.90;1.00;-2.60;92668.00;;;;7395462;19;20755;-75
2022/04/02 00:20:17;;;;;;;538.50;39.70;;;-2.90;1.00;-2.50;92641.00;;;;7389317;19;20129;-75
2022/04/02 00:25:37;;;;;;;89.43;22.60;;;-2.80;1.00;-2.40;92662.00;;;;7394908;19;20145;-74
2022/04/02 00:28:04;;;;;;;377.37;34.57;;;-2.90;1.00;-2.40;92643.00;;;;7393466;19;20136;-73
2022/04/02 00:30:31;;;;;;;95.13;22.13;;;-2.90;1.00;-2.40;92661.00;;;;7392269;19;20623;-74
2022/04/02 00:33:05;;;;;;;388.10;34.30;;;-2.80;1.00;-2.40;92617.00;;;;7387221;19;20605;-74
2022/04/02 00:35:32;;;;;;;128.73;24.07;;;-2.90;1.00;-2.40;92640.00;;;;7391676;19;20141;-74
2022/04/02 00:37:59;;;;;;;45.60;21.40;;;-2.80;1.00;-2.70;92653.00;;;;7392182;19;20186;-74
2022/04/02 00:40:34;;;;;;;218.00;28.57;;;-2.80;1.00;-2.40;92645.00;;;;7390606;19;20640;-73
2022/04/02 00:43:01;;;;;;;206.57;24.90;;;-2.80;1.00;-2.60;92646.00;;;;7391150;19;20133;-74
2022/04/02 00:45:28;;;;;;;61.53;19.77;;;-2.80;1.00;-2.40;92681.00;;;;7390162;19;20126;-74
2022/04/02 00:48:03;;;;;;;30.63;19.53;;;-2.80;1.00;-2.50;92653.00;;;;7390537;19;20545;-74
2022/04/02 00:50:30;;;;;;;110.33;22.40;;;-2.80;1.00;-2.40;92672.00;;;;7390882;19;20152;-74
2022/04/02 00:52:57;;;;;;;105.07;21.50;;;-2.80;1.00;-2.40;92659.00;;;;7391678;19;20157;-74
2022/04/02 00:55:32;;;;;;;58.93;19.57;;;-2.80;1.00;-2.40;92685.00;;;;7390165;19;20159;-74
2022/04/02 00:58:01;;;;;;;118.30;22.67;;;-2.80;1.00;-2.40;92682.00;;;;7390267;19;20608;-75
2022/04/02 01:00:28;;;;;;;352.30;29.83;;;-2.80;1.00;-2.40;92679.00;;;;7392839;19;20925;-73
2022/04/02 01:03:02;;;;;;;37.27;21.10;;;-2.80;1.00;-2.50;92648.00;;;;7388488;19;20144;-72
2022/04/02 01:05:40;;;;;;;109.87;19.80;;;-2.80;1.00;-2.40;92654.00;;;;7388483;19;20635;-74
2022/04/02 01:08:14;;;;;;;83.30;19.80;;;-2.70;1.00;-2.30;92655.00;;;;7390005;19;20208;-75
2022/04/02 01:10:41;;;;;;;78.47;17.23;;;-2.80;1.00;-2.30;92649.00;;;;7390464;19;20169;-73
2022/04/02 01:13:09;;;;;;;35.67;15.83;;;-2.80;1.00;-2.30;92649.00;;;;7392850;19;20500;-74
2022/04/02 01:15:47;;;;;;;107.87;18.60;;;-2.70;1.00;-2.40;92634.00;;;;7389630;19;20192;-74
2022/04/02 01:18:14;;;;;;;31.47;16.13;;;-2.70;1.00;-2.30;92647.00;;;;7390676;19;20608;-74
2022/04/02 01:20:41;;;;;;;71.10;17.70;;;-2.70;1.00;-2.30;92663.00;;;;7390111;19;20138;-75
2022/04/02 01:23:15;;;;;;;41.00;16.17;;;-2.70;1.00;-2.40;92655.00;;;;7387980;19;20139;-74
2022/04/02 01:25:44;;;;;;;85.03;18.17;;;-2.80;1.00;-2.30;92686.00;;;;7389361;19;20118;-74
2022/04/02 01:28:11;;;;;;;23.00;15.23;;;-2.70;1.00;-2.30;92656.00;;;;7390301;19;20141;-74
2022/04/02 01:30:45;;;;;;;50.23;17.30;;;-2.70;1.00;-2.30;92683.00;;;;7389707;19;20162;-75
2022/04/02 01:33:13;;;;;;;21.77;14.90;;;-2.70;1.00;-2.30;92696.00;;;;7396112;19;20484;-74
2022/04/02 01:35:41;;;;;;;43.27;16.53;;;-2.70;1.00;-2.20;92669.00;;;;7397962;19;20113;-74
2022/04/02 01:38:15;;;;;;;447.23;36.60;;;-2.70;1.00;-2.20;92669.00;;;;7396788;19;20538;-74
2022/04/02 01:40:42;;;;;;;29.73;16.17;;;-2.70;1.00;-2.20;92674.00;;;;7397521;19;20134;-74
2022/04/02 01:43:09;;;;;;;139.20;20.97;;;-2.70;1.00;-2.30;92687.00;;;;7395078;19;20145;-74
2022/04/02 01:45:43;;;;;;;86.53;18.83;;;-2.70;1.00;-2.20;92683.00;;;;7396992;19;20503;-74
2022/04/02 01:48:10;;;;;;;43.73;16.63;;;-2.70;1.00;-2.30;92674.00;;;;7395556;19;20137;-74
2022/04/02 01:50:38;;;;;;;22.37;16.00;;;-2.60;1.00;-2.30;92677.00;;;;7396825;19;20614;-73
2022/04/02 01:53:13;;;;;;;22.23;16.60;;;-2.60;1.00;-2.20;92666.00;;;;7397131;19;20133;-73
2022/04/02 01:55:40;;;;;;;26.33;17.23;;;-2.60;1.00;-2.10;92652.00;;;;7396977;19;20237;-74
2022/04/02 01:58:07;;;;;;;22.40;15.93;;;-2.70;1.00;-2.30;92680.00;;;;7396051;19;20145;-74
2022/04/02 02:00:41;;;;;;;87.17;20.13;;;-2.60;1.00;-2.10;92689.00;;;;7396535;19;20133;-73
2022/04/02 02:03:09;;;;;;;31.77;16.13;;;-2.60;1.00;-2.20;92698.00;;;;7393960;19;20141;-73
2022/04/02 02:05:37;;;;;;;23.23;17.17;;;-2.60;1.00;-2.20;92650.00;;;;7393854;19;20185;-74
2022/04/02 02:08:12;;;;;;;23.67;16.80;;;-2.60;1.00;-2.20;92696.00;;;;7396227;19;20145;-74
2022/04/02 02:10:39;;;;;;;25.03;18.43;;;-2.60;1.00;-2.10;92691.00;;;;7393706;19;20129;-73
2022/04/02 02:13:06;;;;;;;24.67;17.13;;;-2.60;1.00;-2.30;92684.00;;;;7395390;19;20462;-74
2022/04/02 02:15:40;;;;;;;54.33;20.43;;;-2.60;1.00;-2.20;92670.00;;;;7396740;19;20126;-74
2022/04/02 02:18:07;;;;;;;26.27;18.83;;;-2.60;1.00;-2.20;92706.00;;;;7398027;19;20122;-74
2022/04/02 02:20:34;;;;;;;32.13;18.60;;;-2.60;1.00;-2.20;92708.00;;;;7396542;19;20561;-73
2022/04/02 02:23:09;;;;;;;26.23;19.07;;;-2.60;1.00;-2.20;92682.00;;;;7393252;19;20142;-74
2022/04/02 02:25:36;;;;;;;34.50;20.63;;;-2.60;1.00;-2.30;92704.00;;;;7395616;19;20603;-74
2022/04/02 02:28:04;;;;;;;24.37;18.43;;;-2.60;1.00;-2.30;92717.00;;;;7397191;19;20134;-74
2022/04/02 02:30:38;;;;;;;30.77;18.10;;;-2.70;1.00;-2.40;92706.00;;;;7395107;19;20177;-74
2022/04/02 02:35:57;;;;;;;31.00;19.27;;;-2.70;1.00;-2.40;92722.00;;;;7396875;19;20456;-73
2022/04/02 02:38:24;;;;;;;223.67;24.97;;;-2.70;1.00;-2.40;92698.00;;;;7395572;19;20558;-74
2022/04/02 02:40:52;;;;;;;24.23;17.60;;;-2.70;1.00;-2.40;92724.00;;;;7394039;19;20201;-74
2022/04/02 02:43:26;;;;;;;31.30;18.17;;;-2.70;1.00;-2.30;92699.00;;;;7393273;19;20524;-72
2022/04/02 02:45:53;;;;;;;23.83;17.23;;;-2.70;1.00;-2.20;92738.00;;;;7395834;19;20129;-74
2022/04/02 02:48:21;;;;;;;23.93;17.90;;;-2.70;1.00;-2.40;92725.00;;;;7394821;19;20476;-74
2022/04/02 02:50:56;;;;;;;23.23;17.53;;;-2.70;1.00;-2.40;92729.00;;;;7396113;19;20591;-74
2022/04/02 02:53:23;;;;;;;25.47;18.77;;;-2.70;1.00;-2.40;92739.00;;;;7395216;19;20161;-74
2022/04/02 02:55:52;;;;;;;25.17;17.53;;;-2.70;1.00;-2.30;92735.00;;;;7394091;19;20134;-73
2022/04/02 02:58:26;;;;;;;22.03;16.07;;;-2.70;1.00;-2.40;92731.00;;;;7395632;19;20126;-74
2022/04/02 03:00:53;;;;;;;21.97;16.40;;;-2.80;1.00;-2.40;92708.00;;;;7394144;19;20149;-74
2022/04/02 03:03:22;;;;;;;23.10;16.57;;;-2.80;1.00;-2.40;92699.00;;;;7392639;19;20212;-73
2022/04/02 03:06:02;;;;;;;26.57;18.33;;;-2.70;1.00;-2.40;92735.00;;;;7393395;19;20182;-73
2022/04/02 03:08:29;;;;;;;23.47;18.20;;;-2.80;1.00;-2.40;92724.00;;;;7393459;19;20622;-74
2022/04/02 03:11:03;;;;;;;24.93;17.20;;;-2.80;1.00;-2.50;92734.00;;;;7394516;19;20157;-74
2022/04/02 03:13:30;;;;;;;26.70;16.80;;;-2.80;1.00;-2.70;92718.00;;;;7395491;19;20597;-74
2022/04/02 03:15:57;;;;;;;24.13;17.93;;;-2.80;1.00;-2.70;92727.00;;;;7393434;19;20196;-74
2022/04/02 03:18:31;;;;;;;26.00;18.67;;;-2.80;1.00;-2.60;92731.00;;;;7393868;19;20153;-73
2022/04/02 03:20:58;;;;;;;27.07;17.97;;;-2.90;1.00;-2.50;92685.00;;;;7395767;19;20132;-74
2022/04/02 03:23:25;;;;;;;30.90;18.13;;;-2.90;1.00;-2.70;92704.00;;;;7391632;19;20149;-74
2022/04/02 03:25:59;;;;;;;27.37;17.13;;;-2.90;1.00;-2.60;92749.00;;;;7394147;19;20599;-74
2022/04/02 03:28:26;;;;;;;31.60;19.50;;;-2.90;1.00;-2.60;92747.00;;;;7395369;19;20125;-74
2022/04/02 03:30:53;;;;;;;26.23;16.50;;;-2.90;1.00;-2.70;92745.00;;;;7392968;19;20134;-73
2022/04/02 03:33:27;;;;;;;28.50;18.67;;;-2.90;1.00;-2.60;92748.00;;;;7394177;19;20129;-74
2022/04/02 03:35:54;;;;;;;26.90;17.87;;;-2.90;1.00;-2.60;92731.00;;;;7395046;19;20705;-74
2022/04/02 03:38:21;;;;;;;26.43;18.53;;;-2.90;1.00;-2.60;92752.00;;;;7393079;19;20146;-73
2022/04/02 03:40:56;;;;;;;30.60;17.10;;;-2.90;1.00;-2.70;92748.00;;;;7393976;19;20589;-73
2022/04/02 03:43:23;;;;;;;27.90;19.00;;;-2.90;1.00;-2.70;92754.00;;;;7391585;19;20611;-73
2022/04/02 03:45:50;;;;;;;24.77;18.27;;;-2.90;1.00;-2.60;92763.00;;;;7393039;19;20129;-74
2022/04/02 03:48:24;;;;;;;27.33;18.23;;;-2.90;1.00;-2.80;92723.00;;;;7392158;19;20597;-73
2022/04/02 03:50:51;;;;;;;28.77;17.00;;;-2.90;1.00;-2.60;92750.00;;;;7392264;19;20133;-73
2022/04/02 03:53:24;;;;;;;28.00;18.50;;;-2.90;1.00;-2.70;92721.00;;;;7394831;19;20135;-74
2022/04/02 03:55:58;;;;;;;23.00;16.90;;;-2.90;1.00;-2.70;92733.00;;;;7393549;19;20140;-74
2022/04/02 03:58:27;;;;;;;21.77;16.37;;;-3.00;1.00;-2.70;92746.00;;;;7392035;19;20140;-73
2022/04/02 04:01:02;;;;;;;24.27;16.80;;;-3.00;1.00;-2.80;92725.00;;;;7392359;19;20145;-73
2022/04/02 04:03:36;;;;;;;23.27;17.10;;;-3.00;1.00;-2.70;92758.00;;;;7391536;19;20594;-74
2022/04/02 04:06:09;;;;;;;25.40;16.27;;;-3.00;1.00;-2.60;92758.00;;;;7390538;19;20201;-74
2022/04/02 04:08:43;;;;;;;23.87;15.50;;;-3.00;1.00;-2.70;92759.00;;;;7391302;19;20959;-74
2022/04/02 04:11:10;;;;;;;23.40;16.73;;;-3.00;1.00;-2.70;92752.00;;;;7391840;19;20137;-73
2022/04/02 04:13:38;;;;;;;23.47;16.10;;;-3.00;1.00;-2.80;92740.00;;;;7392135;19;20600;-73
2022/04/02 04:16:12;;;;;;;21.67;15.77;;;-3.00;1.00;-2.70;92769.00;;;;7391188;19;20943;-74
2022/04/02 04:18:39;;;;;;;22.07;15.83;;;-3.00;1.00;-2.80;92749.00;;;;7391626;19;20762;-74
2022/04/02 04:21:06;;;;;;;20.03;14.90;;;-3.00;1.00;-2.70;92746.00;;;;7392405;19;20159;-73
2022/04/02 04:23:44;;;;;;;19.60;14.90;;;-3.00;1.00;-2.90;92776.00;;;;7389766;19;20125;-74
2022/04/02 04:26:13;;;;;;;26.33;15.90;;;-3.00;1.00;-2.70;92759.00;;;;7391121;19;20149;-74
2022/04/02 04:28:47;;;;;;;21.07;14.33;;;-3.00;1.00;-2.70;92746.00;;;;7393387;19;20603;-73
2022/04/02 04:31:17;;;;;;;19.90;14.07;;;-3.00;1.00;-2.80;92756.00;;;;7391243;19;20141;-73
2022/04/02 04:33:46;;;;;;;16.67;12.23;;;-3.00;1.00;-2.70;92783.00;;;;7391082;19;20132;-74
2022/04/02 04:36:22;;;;;;;18.83;13.40;;;-3.10;1.00;-2.70;92773.00;;;;7391005;19;20130;-73
2022/04/02 04:38:50;;;;;;;17.57;12.50;;;-3.00;1.00;-2.70;92776.00;;;;7392269;19;20125;-75
2022/04/02 04:41:19;;;;;;;16.63;12.67;;;-3.00;1.00;-2.80;92774.00;;;;7387765;19;20640;-74
2022/04/02 04:43:53;;;;;;;16.60;12.40;;;-3.00;1.00;-2.70;92782.00;;;;7386659;19;20541;-74
2022/04/02 04:46:21;;;;;;;18.53;13.90;;;-3.10;1.00;-2.70;92762.00;;;;7392951;19;20125;-74
2022/04/02 04:48:49;;;;;;;19.83;13.93;;;-3.10;1.00;-2.80;92758.00;;;;7390792;19;20596;-74
2022/04/02 04:51:24;;;;;;;16.17;12.87;;;-3.00;1.00;-2.60;92791.00;;;;7391816;19;20143;-74
2022/04/02 04:53:51;;;;;;;16.47;12.83;;;-3.10;1.00;-2.70;92794.00;;;;7391545;19;20468;-73
2022/04/02 04:56:18;;;;;;;20.93;13.43;;;-3.10;1.00;-2.70;92806.00;;;;7391721;19;20133;-73
2022/04/02 04:58:52;;;;;;;15.77;12.70;;;-3.10;1.00;-2.80;92802.00;;;;7391005;19;20121;-73
2022/04/02 05:01:22;;;;;;;19.20;12.90;;;-3.10;99.90;-2.80;92777.00;;;;7390488;19;20141;-74
2022/04/02 05:03:49;;;;;;;17.17;12.83;;;-3.10;99.90;-2.70;92791.00;;;;7390791;19;20135;-74
2022/04/02 05:06:31;;;;;;;17.03;12.63;;;-3.10;99.90;-2.70;92786.00;;;;7390398;19;20171;-75
2022/04/02 05:08:58;;;;;;;17.20;12.47;;;-3.10;99.90;-2.70;92755.00;;;;7399685;19;20156;-74
2022/04/02 05:11:32;;;;;;;16.90;11.37;;;-3.10;99.90;-2.70;92775.00;;;;7400309;19;20166;-74
2022/04/02 05:14:00;;;;;;;14.57;10.97;;;-3.00;99.90;-2.70;92818.00;;;;7399885;19;20607;-74
2022/04/02 05:16:27;;;;;;;15.30;11.53;;;-3.10;99.90;-2.70;92764.00;;;;7397113;19;20164;-74
2022/04/02 05:19:02;;;;;;;15.77;12.07;;;-3.10;99.90;-2.80;92816.00;;;;7397456;19;20141;-74
2022/04/02 05:21:29;;;;;;;14.87;11.30;;;-3.00;99.90;-2.60;92824.00;;;;7399614;19;20137;-74
2022/04/02 05:23:56;;;;;;;13.33;10.83;;;-3.00;99.90;-2.60;92795.00;;;;7397256;19;20133;-74
2022/04/02 05:26:32;;;;;;;14.27;11.67;;;-3.00;99.90;-2.60;92830.00;;;;7398357;19;20133;-74
2022/04/02 05:29:00;;;;;;;13.10;10.13;;;-3.00;99.90;-2.70;92814.00;;;;7401398;19;20125;-74
2022/04/02 05:31:28;;;;;;;14.80;10.90;;;-3.00;99.90;-2.60;92830.00;;;;7398187;19;20129;-75
2022/04/02 05:34:02;;;;;;;14.03;10.83;;;-3.00;99.90;-2.60;92808.00;;;;7391405;19;20520;-74
2022/04/02 05:36:29;;;;;;;13.50;10.40;;;-3.00;99.90;-2.60;92796.00;;;;7400520;19;20564;-73
2022/04/02 05:38:56;;;;;;;13.27;10.80;;;-3.00;99.90;-2.50;92838.00;;;;7403274;19;20162;-75
2022/04/02 05:41:30;;;;;;;13.47;10.47;;;-3.00;99.90;-2.60;92814.00;;;;7401533;19;20137;-74
2022/04/02 05:43:57;;;;;;;13.73;9.90;;;-3.00;99.90;-2.60;92842.00;;;;7400329;19;20121;-75
2022/04/02 05:46:26;;;;;;;14.60;10.87;;;-3.00;99.90;-2.50;92841.00;;;;7403297;19;20128;-74
2022/04/02 05:49:00;;;;;;;13.57;10.33;;;-3.00;99.90;-2.50;92819.00;;;;7403317;19;20139;-75
2022/04/02 05:51:28;;;;;;;12.93;10.73;;;-2.90;99.90;-2.50;92857.00;;;;7401870;19;20205;-75
2022/04/02 05:53:55;;;;;;;13.23;9.93;;;-2.90;99.90;-2.50;92862.00;;;;7401434;19;20165;-74
2022/04/02 05:56:30;;;;;;;12.27;10.40;;;-2.90;99.90;-2.60;92853.00;;;;7400531;19;20145;-74
2022/04/02 05:58:58;;;;;;;12.77;10.10;;;-2.90;99.90;-2.40;92822.00;;;;7400951;19;20176;-74
2022/04/02 06:01:26;;;;;;;11.60;9.57;;;-2.90;99.90;-2.50;92814.00;;;;7398795;19;20138;-74
2022/04/02 06:04:02;;;;;;;12.53;9.73;;;-2.90;99.90;-2.60;92870.00;;;;7397612;19;20147;-74
2022/04/02 06:06:37;;;;;;;14.77;9.10;;;-2.90;99.90;-2.70;92870.00;;;;7396102;19;20249;-75
2022/04/02 06:09:12;;;;;;;10.47;9.03;;;-2.90;99.90;-2.60;92834.00;;;;7396395;19;20181;-75
2022/04/02 06:11:39;;;;;;;14.27;9.30;;;-2.90;99.90;-2.60;92862.00;;;;7399580;19;20136;-74
2022/04/02 06:14:07;;;;;;;12.90;9.23;;;-2.90;99.90;-2.70;92855.00;;;;7400499;19;20580;-75
2022/04/02 06:16:44;;;;;;;11.23;9.40;;;-2.90;99.90;-2.70;92881.00;;;;7399850;19;20140;-74
2022/04/02 06:19:12;;;;;;;9.73;8.73;;;-2.90;99.90;-2.50;92889.00;;;;7398033;19;20190;-74
2022/04/02 06:21:39;;;;;;;10.63;8.87;;;-2.90;99.90;-2.50;92853.00;;;;7399780;19;20137;-75
2022/04/02 06:24:13;;;;;;;11.97;9.23;;;-2.90;99.90;-2.50;92871.00;;;;7398781;19;20210;-74
2022/04/02 06:26:40;;;;;;;11.90;9.43;;;-2.90;99.90;-2.40;92890.00;;;;7400710;19;20196;-75
2022/04/02 06:29:08;;;;;;;11.97;9.50;;;-2.80;99.90;-2.30;92878.00;;;;7398965;19;20142;-75
2022/04/02 06:31:42;;;;;;;11.73;9.43;;;-2.80;99.90;-2.30;92875.00;;;;7399962;19;20124;-74
2022/04/02 06:34:11;;;;;;;10.63;8.83;;;-2.70;99.90;-2.30;92868.00;;;;7399437;19;20147;-74
2022/04/02 06:36:39;;;;;;;11.47;9.57;;;-2.80;99.90;-2.30;92877.00;;;;7398829;19;20168;-74
2022/04/02 06:39:13;;;;;;;11.57;9.20;;;-2.80;99.90;-2.50;92878.00;;;;7397878;19;20144;-75
2022/04/02 06:41:41;;;;;;;12.67;8.83;;;-2.80;99.90;-2.40;92916.00;;;;7398327;19;20197;-74
2022/04/02 06:44:09;;;;;;;11.40;8.73;;;-2.80;99.90;-2.40;92907.00;;;;7396378;19;20137;-75
2022/04/02 06:46:43;;;;;;;11.77;9.07;;;-2.80;99.90;-2.40;92903.00;;;;7399390;19;20160;-74
2022/04/02 06:49:11;;;;;;;8.53;7.40;;;-2.80;73.40;-2.40;92910.00;;;;7393023;19;20909;-74
2022/04/02 06:51:39;;;;;;;9.87;8.37;;;-2.80;29.80;-2.30;92872.00;;;;7394619;19;20129;-75
2022/04/02 06:54:14;;;;;;;13.00;8.63;;;-2.80;14.90;-2.10;92922.00;;;;7392111;19;20144;-74
2022/04/02 06:56:42;;;;;;;12.10;8.37;;;-2.70;8.60;-1.90;92904.00;;;;7392279;19;20125;-74
2022/04/02 06:59:10;;;;;;;10.47;8.00;;;-2.60;1.00;-2.00;92907.00;;;;7391946;19;20490;-74
2022/04/02 07:01:44;;;;;;;11.47;8.33;;;-2.60;1.00;-2.00;92927.00;;;;7391982;19;20145;-75
2022/04/02 07:04:12;;;;;;;10.37;8.17;;;-2.50;1.00;-1.80;92908.00;;;;7391838;19;20209;-73
2022/04/02 07:06:44;;;;;;;8.90;7.77;;;-2.50;1.00;-2.00;92922.00;;;;7390876;19;20149;-75
2022/04/02 07:09:18;;;;;;;10.93;8.00;;;-2.40;1.00;-1.80;92915.00;;;;7390684;19;20190;-75
2022/04/02 07:11:46;;;;;;;9.33;7.67;;;-2.40;1.00;-2.00;92935.00;;;;7391697;19;20732;-75
2022/04/02 07:14:13;;;;;;;11.30;7.87;;;-2.40;1.00;-2.00;92889.00;;;;7395565;19;20483;-74
2022/04/02 07:16:47;;;;;;;8.40;7.40;;;-2.30;1.00;-1.80;92940.00;;;;7396034;19;20462;-74
2022/04/02 07:19:22;;;;;;;7.40;6.60;;;-2.40;1.00;-2.00;92950.00;;;;7392939;19;20861;-75
2022/04/02 07:21:56;;;;;;;7.43;6.53;;;-2.40;99.90;-2.00;92904.00;;;;7396140;19;20621;-75
2022/04/02 07:24:24;;;;;;;7.90;6.70;;;-2.40;99.90;-2.00;92950.00;;;;7397703;19;20118;-75
2022/04/02 07:26:54;;;;;;;7.07;5.80;;;-2.40;99.90;-2.10;92948.00;;;;7398732;19;20523;-74
2022/04/02 07:29:32;;;;;;;10.27;6.77;;;-2.50;99.90;-1.90;92964.00;;;;7395164;19;20141;-75
2022/04/02 07:32:00;;;;;;;8.27;6.77;;;-2.50;99.90;-1.80;92968.00;;;;7396612;19;20129;-75
2022/04/02 07:34:28;;;;;;;13.80;6.83;;;-2.40;99.90;-1.90;92955.00;;;;7396889;19;20154;-74
2022/04/02 07:37:32;;;;;;;8.90;7.70;;;-2.40;99.90;-2.00;92975.00;;;;7395706;19;20209;-75
2022/04/02 07:40:24;;;;;;;10.37;7.77;;;-2.50;99.90;-1.90;92951.00;;;;7398881;19;20141;-75
2022/04/02 07:43:25;;;;;;;10.63;7.17;;;-2.40;99.90;-1.40;92985.00;;;;7395911;19;20140;-74
2022/04/02 07:46:08;;;;;;;8.27;7.27;;;-2.30;99.90;-1.50;92956.00;;;;7396219;19;20142;-73
2022/04/02 07:48:48;;;;;;;8.27;6.97;;;-2.20;99.90;-1.40;92959.00;;;;7395931;19;20118;-75
2022/04/02 07:51:20;;;;;;;9.80;7.07;;;-2.20;99.90;-1.30;92971.00;;;;7398335;19;20414;-74
2022/04/02 07:54:00;;;;;;;10.07;6.77;;;-2.20;99.90;-1.40;92991.00;;;;7395307;19;20194;-75
2022/04/02 07:56:36;;;;;;;10.60;6.53;;;-2.20;99.90;-1.50;92957.00;;;;7394186;19;20148;-76
2022/04/02 07:59:35;;;;;;;6.87;6.17;;;-2.20;68.00;-1.60;93002.00;;;;7393651;19;20471;-73
2022/04/02 08:02:36;;;;;;;8.23;6.33;;;-2.20;1.00;-1.60;93002.00;;;;7393534;19;20134;-75
2022/04/02 08:05:00;;;;;;;7.53;6.40;;;-2.20;3.60;-1.70;93005.00;;;;7394221;19;20162;-74
2022/04/02 08:07:37;;;;;;;8.80;6.43;;;-2.20;48.70;-1.50;93004.00;;;;7390898;19;20534;-74
2022/04/02 08:10:13;;;;;;;8.60;7.07;;;-2.20;8.80;-1.40;92963.00;;;;7390519;19;20186;-74
2022/04/02 08:12:42;;;;;;;8.33;6.87;;;-2.20;1.00;-1.60;93020.00;;;;7393919;19;20148;-74
2022/04/02 08:15:19;;;;;;;8.50;6.50;;;-2.10;1.00;-1.40;93018.00;;;;7393239;19;20541;-73
2022/04/02 08:17:55;;;;;;;7.67;6.87;;;-2.00;1.00;-1.00;92978.00;;;;7392014;19;20139;-74
2022/04/02 08:20:24;;;;;;;8.97;7.27;;;-1.90;1.00;-1.30;93019.00;;;;7392893;19;20313;-75
2022/04/02 08:22:55;;;;;;;8.00;6.27;;;-1.80;1.00;-1.50;93014.00;;;;7392126;19;20140;-74
2022/04/02 08:25:35;;;;;;;8.07;6.37;;;-2.00;1.00;-1.60;93032.00;;;;7393461;19;20209;-74
2022/04/02 08:28:56;;;;;;;10.33;6.63;;;-2.10;99.90;-1.90;93050.00;;;;7392466;19;20139;-74
2022/04/02 08:31:53;;;;;;;8.40;7.17;;;-2.20;99.90;-1.60;93034.00;;;;7392262;19;20138;-74
2022/04/02 08:35:05;;;;;;;11.20;7.77;;;-2.20;1.00;-1.60;93032.00;;;;7392003;19;20149;-74
2022/04/02 08:37:58;;;;;;;8.87;7.63;;;-2.10;1.00;-1.50;93049.00;;;;7391689;19;20143;-74
2022/04/02 08:40:53;;;;;;;10.63;7.93;;;-2.10;1.00;-1.80;93042.00;;;;7391938;19;20142;-75
2022/04/02 08:44:05;;;;;;;13.70;7.90;;;-2.20;1.00;-1.90;93057.00;;;;7390012;19;20192;-74
2022/04/02 08:47:29;;;;;;;9.67;8.40;;;-2.20;1.00;-1.50;93059.00;;;;7392906;19;20468;-75
2022/04/02 08:50:36;;;;;;;14.83;9.40;;;-2.20;1.00;-1.40;93056.00;;;;7395410;19;20545;-74
2022/04/02 08:53:57;;;;;;;12.40;9.13;;;-2.00;99.90;-1.10;93066.00;;;;7393194;19;20137;-75
2022/04/02 08:56:38;;;;;;;10.30;8.10;;;-2.00;99.90;-1.20;93074.00;;;;7393378;19;20604;-75
2022/04/02 08:59:14;;;;;;;11.67;8.87;;;-2.00;99.90;-1.10;93057.00;;;;7393078;19;20661;-76
2022/04/02 09:02:48;;;;;;;10.87;8.10;;;-1.90;99.90;-0.90;93081.00;;;;7392741;19;20131;-75
2022/04/02 09:06:20;;;;;;;10.30;8.37;;;-1.70;99.90;-0.80;93075.00;;;;7391983;19;20604;-75
2022/04/02 09:09:15;;;;;;;9.97;7.70;;;-1.60;1.00;-1.20;93083.00;;;;7393692;19;20170;-75
2022/04/02 09:11:59;;;;;;;12.83;8.03;;;-1.70;1.00;-1.40;93088.00;;;;7392601;19;20179;-75
2022/04/02 09:14:52;;;;;;;11.70;8.47;;;-1.80;1.00;-1.60;93088.00;;;;7392316;19;20173;-74
2022/04/02 09:18:01;;;;;;;9.20;7.63;;;-2.00;99.90;-1.10;93075.00;;;;7391621;19;20142;-73
2022/04/02 09:20:57;;;;;;;9.00;7.93;;;-2.00;99.90;-1.30;93087.00;;;;7391320;19;20143;-75
2022/04/02 09:24:03;;;;;;;10.23;8.27;;;-2.00;99.90;-1.70;93063.00;;;;7390459;19;20140;-74
2022/04/02 09:27:13;;;;;;;11.53;8.83;;;-2.10;99.90;-1.90;93115.00;;;;7392547;19;20141;-75
2022/04/02 09:29:41;;;;;;;13.03;8.90;;;-2.20;99.90;-2.00;93112.00;;;;7393101;19;20154;-75
2022/04/02 09:32:52;;;;;;;12.57;10.27;;;-2.20;99.90;-1.50;93095.00;;;;7392666;19;20141;-75
2022/04/02 09:36:26;;;;;;;13.43;10.53;;;-2.10;99.90;-1.20;93129.00;;;;7391633;19;20152;-75
2022/04/02 09:39:07;;;;;;;13.60;10.33;;;-2.00;99.90;-1.40;93119.00;;;;7391053;19;20135;-74
2022/04/02 09:42:14;;;;;;;14.60;10.83;;;-1.90;85.00;-0.80;93103.00;;;;7392369;19;21047;-73
2022/04/02 09:45:14;;;;;;;14.37;9.83;;;-1.70;1.00;-0.90;93121.00;;;;7389683;19;20219;-75
2022/04/02 09:47:58;;;;;;;12.40;9.97;;;-1.60;1.00;-0.70;93120.00;;;;7392503;19;20131;-75
2022/04/02 09:50:33;;;;;;;13.80;9.57;;;-1.60;99.90;-0.20;93113.00;;;;7392139;19;20145;-75
2022/04/02 09:53:26;;;;;;;11.97;8.80;;;-1.40;99.90;0.10;93110.00;;;;7394624;19;20853;-75
2022/04/02 09:56:33;;;;;;;12.87;8.93;;;-1.00;99.90;0.80;93108.00;;;;7399829;19;20634;-75
2022/04/02 09:59:18;;;;;;;11.80;9.00;;;-0.50;1.00;0.70;93101.00;;;;7401626;19;20128;-75
2022/04/02 10:02:05;;;;;;;8.63;7.50;;;-0.50;1.00;0.60;93123.00;;;;7400031;19;20124;-75
2022/04/02 10:04:55;;;;;;;10.10;8.00;;;-0.50;1.00;0.10;93132.00;;;;7397921;19;20156;-75
2022/04/02 10:08:11;;;;;;;11.43;8.53;;;-0.80;1.00;-0.50;93145.00;;;;7396281;19;20149;-76
2022/04/02 10:10:43;;;;;;;15.33;8.73;;;-1.00;1.00;-0.40;93121.00;;;;7397435;19;20163;-76
2022/04/02 10:13:27;;;;;;;10.77;8.10;;;-1.20;99.90;-0.70;93115.00;;;;7398547;19;20161;-76
2022/04/02 10:15:55;;;;;;;12.47;7.80;;;-1.30;1.00;-1.10;93113.00;;;;7399114;19;20132;-76
2022/04/02 10:18:35;;;;;;;11.27;9.23;;;-1.40;99.90;-0.80;93138.00;;;;7398976;19;20132;-75
2022/04/02 10:21:07;;;;;;;10.83;7.20;;;-1.60;99.90;-1.00;93156.00;;;;7398937;19;20125;-75
2022/04/02 10:23:52;;;;;;;13.20;8.20;;;-1.70;99.90;-1.10;93153.00;;;;7398532;19;20200;-75
2022/04/02 10:26:22;;;;;;;12.17;7.87;;;-1.70;99.90;-1.00;93147.00;;;;7399142;19;20215;-76
2022/04/02 10:29:01;;;;;;;11.90;8.03;;;-1.50;99.90;-0.50;93162.00;;;;7398527;19;20162;-75
2022/04/02 10:31:39;;;;;;;10.97;8.23;;;-1.50;99.90;-0.40;93147.00;;;;7398265;19;20203;-75
2022/04/02 10:35:01;;;;;;;10.30;8.03;;;-1.50;99.90;-0.60;93159.00;;;;7398169;19;20135;-75
2022/04/02 10:38:12;;;;;;;9.13;6.93;;;-1.30;99.90;-0.70;93154.00;;;;7398531;19;20494;-76
2022/04/02 10:40:52;;;;;;;7.80;7.00;;;-1.30;99.90;-0.80;93166.00;;;;7399324;19;20613;-74
2022/04/02 10:43:36;;;;;;;9.47;7.93;;;-1.40;99.90;-0.70;93115.00;;;;7399247;19;20598;-77
2022/04/02 10:46:11;;;;;;;8.87;7.70;;;-1.50;99.90;-0.60;93147.00;;;;7398804;19;20137;-75
2022/04/02 10:49:00;;;;;;;9.73;7.80;;;-1.40;99.90;-0.20;93116.00;;;;7398314;19;20465;-76
2022/04/02 10:51:39;;;;;;;9.23;7.57;;;-1.20;99.90;-0.30;93171.00;;;;7397910;19;20154;-76
2022/04/02 10:54:12;;;;;;;9.10;7.67;;;-1.10;1.00;-0.50;93146.00;;;;7397352;19;20148;-75
2022/04/02 10:56:47;;;;;;;9.23;6.67;;;-1.30;1.00;-1.00;93131.00;;;;7396702;19;20165;-75
2022/04/02 10:59:19;;;;;;;18.03;10.50;;;-1.40;1.00;-1.20;93175.00;;;;7392414;19;20155;-76
2022/04/02 11:02:00;;;;;;;9.73;8.30;;;-1.50;45.80;-1.60;93179.00;;;;7395187;19;20154;-75
2022/04/02 11:04:53;;;;;;;11.40;8.00;;;-1.80;99.90;-1.80;93185.00;;;;7390288;19;20162;-76
2022/04/02 11:07:40;;;;;;;12.30;7.83;;;-2.10;99.90;-1.80;93185.00;;;;7393301;19;20636;-76
2022/04/02 11:10:19;;;;;;;9.60;7.93;;;-2.20;1.00;-1.70;93153.00;;;;7393736;19;20641;-75
2022/04/02 11:13:01;;;;;;;13.20;9.27;;;-2.20;99.90;-1.10;93185.00;;;;7394901;19;20135;-76
2022/04/02 11:15:28;;;;;;;10.77;9.03;;;-2.00;1.00;-1.10;93139.00;;;;7394564;19;20137;-75
2022/04/02 11:18:03;;;;;;;9.43;8.43;;;-1.90;99.90;-0.30;93142.00;;;;7395151;19;20151;-76
2022/04/02 11:20:34;;;;;;;9.20;8.07;;;-1.50;99.90;0.10;93147.00;;;;7396036;19;20132;-76
2022/04/02 11:23:15;;;;;;;9.93;7.77;;;-1.30;99.90;0.50;93193.00;;;;7394612;19;20127;-75
2022/04/02 11:26:01;;;;;;;8.10;7.17;;;-0.90;1.00;0.30;93194.00;;;;7397194;19;20128;-75
2022/04/02 11:28:44;;;;;;;9.57;7.30;;;-0.60;99.90;0.10;93189.00;;;;7395298;19;20135;-76
2022/04/02 11:31:29;;;;;;;8.47;7.43;;;-0.50;99.90;0.10;93191.00;;;;7397055;19;20129;-76